Terminal Aerodrome Forecast
Issued by NWS Burlington, VT

Home | Current Version | Previous Version | Text Only | Print | Product List | Glossary On
Versions: 1 2 3 4 5 6 7 8 9 10 11 12 13 14 15 16 17 18 19 20 21 22 23 24 25 26 27 28 29 30
452
FTUS41 KBTV 241418 AAB
TAFBTV
TAF AMD
KBTV 241418Z 2414/2512 35010KT 2SM -SNPL BR BKN009 OVC018
      TEMPO 2414/2416 1/2SM SNPL FZFG OVC005
     FM241600 36010KT 4SM -SN BR OVC011
     FM241800 36010KT 5SM -FZDZSN BR OVC015
     FM250100 34008KT 5SM -SNPL BR OVC015=

USA.gov is the U.S. government's official web portal to all federal, state and local government web resources and services.